createdAt,value
2023-05-22T00:00:09.718Z,13.10
2023-05-22T00:02:43.296Z,13.00
2023-05-22T00:05:12.031Z,13.00
2023-05-22T00:07:39.953Z,13.00
2023-05-22T00:10:07.628Z,12.90
2023-05-22T00:12:35.229Z,12.90
2023-05-22T00:15:02.709Z,12.90
2023-05-22T00:17:31.088Z,12.90
2023-05-22T00:20:07.329Z,12.80
2023-05-22T00:22:35.613Z,12.80
2023-05-22T00:25:06.961Z,12.80
2023-05-22T00:27:34.944Z,12.70
2023-05-22T00:30:03.795Z,12.80
2023-05-22T00:32:31.552Z,12.80
2023-05-22T00:34:59.133Z,12.80
2023-05-22T00:37:26.593Z,12.70
2023-05-22T00:39:54.075Z,12.80
2023-05-22T00:42:22.617Z,12.70
2023-05-22T00:44:50.191Z,12.80
2023-05-22T00:47:17.689Z,12.80
2023-05-22T00:49:46.000Z,12.80
2023-05-22T00:52:14.511Z,12.90
2023-05-22T00:54:42.816Z,12.90
2023-05-22T00:57:10.393Z,12.90
2023-05-22T00:59:37.986Z,12.90
2023-05-22T01:02:05.507Z,12.90
2023-05-22T01:04:33.359Z,12.90
2023-05-22T01:07:02.948Z,12.90
2023-05-22T01:09:30.722Z,12.90
2023-05-22T01:12:16.985Z,12.90
2023-05-22T01:14:52.883Z,12.90
2023-05-22T01:17:37.454Z,12.90
2023-05-22T01:20:07.471Z,12.90
2023-05-22T01:22:58.520Z,12.90
2023-05-22T01:25:38.584Z,12.90
2023-05-22T01:28:18.806Z,12.90
2023-05-22T01:30:49.380Z,13.00
2023-05-22T01:33:18.142Z,13.00
2023-05-22T01:35:48.792Z,13.00
2023-05-22T01:38:16.867Z,12.90
2023-05-22T01:40:45.674Z,12.90
2023-05-22T01:43:16.682Z,13.00
2023-05-22T01:45:44.152Z,13.00
2023-05-22T01:48:12.495Z,13.00
2023-05-22T01:50:40.820Z,13.00
2023-05-22T01:53:28.762Z,13.00
2023-05-22T01:56:01.296Z,13.00
2023-05-22T01:58:28.734Z,13.10
2023-05-22T02:00:57.565Z,13.00
2023-05-22T02:03:27.364Z,13.00
2023-05-22T02:05:55.811Z,13.00
2023-05-22T02:08:25.026Z,12.90
2023-05-22T02:10:54.880Z,13.00
2023-05-22T02:13:22.790Z,12.90
2023-05-22T02:15:51.004Z,12.90
2023-05-22T02:18:18.550Z,13.00
2023-05-22T02:20:46.581Z,13.00
2023-05-22T02:23:14.167Z,13.00
2023-05-22T02:25:41.604Z,13.00
2023-05-22T02:28:09.121Z,13.00
2023-05-22T02:30:36.808Z,12.90
2023-05-22T02:33:06.053Z,12.90
2023-05-22T02:35:33.700Z,12.90
2023-05-22T02:38:01.351Z,12.90
2023-05-22T02:40:28.808Z,12.90
2023-05-22T02:42:58.004Z,12.90
2023-05-22T02:45:25.486Z,12.90
2023-05-22T02:47:53.034Z,12.90
2023-05-22T02:50:20.625Z,12.80
2023-05-22T02:52:49.503Z,12.80
2023-05-22T02:55:17.277Z,12.80
2023-05-22T02:57:44.747Z,12.80
2023-05-22T03:00:12.381Z,12.70
2023-05-22T03:02:39.914Z,12.70
2023-05-22T03:05:08.109Z,12.70
2023-05-22T03:07:35.515Z,12.70
2023-05-22T03:10:03.158Z,12.70
2023-05-22T03:12:30.615Z,12.70
2023-05-22T03:14:58.057Z,12.70
2023-05-22T03:17:25.677Z,12.70
2023-05-22T03:19:53.141Z,12.70
2023-05-22T03:22:21.475Z,12.70
2023-05-22T03:24:48.990Z,12.70
2023-05-22T03:27:17.273Z,12.70
2023-05-22T03:29:44.956Z,12.70
2023-05-22T03:32:12.415Z,12.70
2023-05-22T03:34:40.003Z,12.70
2023-05-22T03:37:09.032Z,12.60
2023-05-22T03:39:36.695Z,12.70
2023-05-22T03:42:04.335Z,12.60
2023-05-22T03:44:31.798Z,12.60
2023-05-22T03:46:59.294Z,12.70
2023-05-22T03:49:26.791Z,12.60
2023-05-22T03:51:54.402Z,12.60
2023-05-22T03:54:21.966Z,12.60
2023-05-22T03:56:49.906Z,12.70
2023-05-22T03:59:17.512Z,12.60
2023-05-22T04:01:46.651Z,12.60
2023-05-22T04:04:14.304Z,12.60
2023-05-22T04:06:44.601Z,12.60
2023-05-22T04:09:12.529Z,12.70
2023-05-22T04:11:39.989Z,12.60
2023-05-22T04:14:07.731Z,12.60
2023-05-22T04:16:35.657Z,12.60
2023-05-22T04:19:03.485Z,12.60
2023-05-22T04:21:34.369Z,12.60
2023-05-22T04:24:02.519Z,12.60
2023-05-22T04:26:32.122Z,12.60
2023-05-22T04:28:59.675Z,12.60
2023-05-22T04:31:27.150Z,12.50
2023-05-22T04:33:55.878Z,12.60
2023-05-22T04:36:26.132Z,12.60
2023-05-22T04:38:54.117Z,12.60
2023-05-22T04:41:27.695Z,12.70
2023-05-22T04:43:55.161Z,12.70
2023-05-22T04:46:22.896Z,12.70
2023-05-22T04:48:51.032Z,12.70
2023-05-22T04:51:18.671Z,12.70
2023-05-22T04:53:47.312Z,12.60
2023-05-22T04:56:18.622Z,12.60
2023-05-22T04:58:53.921Z,12.60
2023-05-22T05:01:21.617Z,12.70
2023-05-22T05:03:49.215Z,12.70
2023-05-22T05:06:17.337Z,12.70
2023-05-22T05:08:46.842Z,12.70
2023-05-22T05:11:14.337Z,12.80
2023-05-22T05:13:42.994Z,12.80
2023-05-22T05:16:10.602Z,12.80
2023-05-22T05:18:38.366Z,12.80
2023-05-22T05:21:05.877Z,12.80
2023-05-22T05:23:33.483Z,12.90
2023-05-22T05:26:01.044Z,12.90
2023-05-22T05:28:28.732Z,12.90
2023-05-22T05:30:57.655Z,12.90
2023-05-22T05:33:25.452Z,12.90
2023-05-22T05:35:52.897Z,12.90
2023-05-22T05:38:20.403Z,12.90
2023-05-22T05:40:48.247Z,12.90
2023-05-22T05:43:15.976Z,12.90
2023-05-22T05:45:43.894Z,13.00
2023-05-22T05:48:12.171Z,12.90
2023-05-22T05:50:39.998Z,12.90
2023-05-22T05:53:07.973Z,12.80
2023-05-22T05:55:35.457Z,12.90
2023-05-22T05:58:02.841Z,12.90
2023-05-22T06:00:30.161Z,12.90
2023-05-22T06:02:57.870Z,12.90
2023-05-22T06:05:26.934Z,13.00
2023-05-22T06:07:54.586Z,12.90
2023-05-22T06:10:22.336Z,12.90
2023-05-22T06:12:49.816Z,13.00
2023-05-22T06:15:17.859Z,13.00
2023-05-22T06:17:45.334Z,13.00
2023-05-22T06:20:14.358Z,13.10
2023-05-22T06:22:41.939Z,13.00
2023-05-22T06:25:10.017Z,13.10
2023-05-22T06:27:37.590Z,13.20
2023-05-22T06:30:05.290Z,12.70
2023-05-22T06:32:32.975Z,13.30
2023-05-22T06:35:00.731Z,13.30
2023-05-22T06:37:28.294Z,13.40
2023-05-22T06:39:55.717Z,13.40
2023-05-22T06:42:23.192Z,13.40
2023-05-22T06:44:50.621Z,13.40
2023-05-22T06:47:18.080Z,13.50
2023-05-22T06:49:45.560Z,13.60
2023-05-22T06:52:14.323Z,13.70
2023-05-22T06:54:43.487Z,13.80
2023-05-22T06:57:11.195Z,13.70
2023-05-22T06:59:39.111Z,13.70
2023-05-22T07:02:07.813Z,13.70
2023-05-22T07:04:35.218Z,13.70
2023-05-22T07:07:02.701Z,13.80
2023-05-22T07:09:30.475Z,13.90
2023-05-22T07:11:58.409Z,13.90
2023-05-22T07:14:25.864Z,13.90
2023-05-22T07:16:53.333Z,13.90
2023-05-22T07:19:21.348Z,13.90
2023-05-22T07:21:48.936Z,13.90
2023-05-22T07:24:16.538Z,13.90
2023-05-22T07:26:46.538Z,14.00
2023-05-22T07:29:14.376Z,14.00
2023-05-22T07:31:42.395Z,14.10
2023-05-22T07:34:10.045Z,14.10
2023-05-22T07:36:38.011Z,14.20
2023-05-22T07:39:05.694Z,14.30
2023-05-22T07:41:33.271Z,14.40
2023-05-22T07:44:01.045Z,14.40
2023-05-22T07:46:28.880Z,14.50
2023-05-22T07:48:56.523Z,14.50
2023-05-22T07:51:24.080Z,14.60
2023-05-22T07:53:51.802Z,14.60
2023-05-22T07:56:19.814Z,14.50
2023-05-22T07:58:48.420Z,14.60
2023-05-22T08:01:15.857Z,14.50
2023-05-22T08:03:43.649Z,14.50
2023-05-22T08:06:12.944Z,14.50
2023-05-22T08:08:40.683Z,14.50
2023-05-22T08:11:08.469Z,14.50
2023-05-22T08:13:38.731Z,14.50
2023-05-22T08:16:06.499Z,14.50
2023-05-22T08:18:34.865Z,14.50
2023-05-22T08:21:02.664Z,14.50
2023-05-22T08:23:30.559Z,14.50
2023-05-22T08:25:58.573Z,14.60
2023-05-22T08:28:26.344Z,14.60
2023-05-22T08:30:55.054Z,14.70
2023-05-22T08:33:22.536Z,14.70
2023-05-22T08:35:50.782Z,14.70
2023-05-22T08:38:18.745Z,14.70
2023-05-22T08:40:47.748Z,14.70
2023-05-22T08:43:15.618Z,14.60
2023-05-22T08:45:44.222Z,14.50
2023-05-22T08:48:12.975Z,14.50
2023-05-22T08:50:42.298Z,14.30
2023-05-22T08:53:13.121Z,14.30
2023-05-22T08:55:43.049Z,14.20
2023-05-22T08:58:11.506Z,14.20
2023-05-22T09:00:39.321Z,14.10
2023-05-22T09:03:10.155Z,14.10
2023-05-22T09:05:39.274Z,14.10
2023-05-22T09:08:19.913Z,14.10
2023-05-22T09:10:48.685Z,14.10
2023-05-22T09:13:27.742Z,14.10
2023-05-22T09:16:14.151Z,14.20
2023-05-22T09:18:42.457Z,14.30
2023-05-22T09:21:25.698Z,14.40
2023-05-22T09:23:59.910Z,14.40
2023-05-22T09:26:28.652Z,14.50
2023-05-22T09:28:57.838Z,14.60
2023-05-22T09:31:26.395Z,14.70
2023-05-22T09:33:54.067Z,14.70
2023-05-22T09:36:22.202Z,14.70
2023-05-22T09:38:54.478Z,14.80
2023-05-22T09:41:24.719Z,14.90
2023-05-22T09:43:52.743Z,14.90
2023-05-22T09:46:20.631Z,14.90
2023-05-22T09:48:51.838Z,15.00
2023-05-22T09:51:23.914Z,15.00
2023-05-22T09:53:52.357Z,15.00
2023-05-22T09:56:27.548Z,15.10
2023-05-22T09:59:07.534Z,15.20
2023-05-22T10:01:36.242Z,15.20
2023-05-22T10:04:04.479Z,15.20
2023-05-22T10:06:34.735Z,15.20
2023-05-22T10:09:04.917Z,15.30
2023-05-22T10:11:32.764Z,15.40
2023-05-22T10:14:02.043Z,15.40
2023-05-22T10:16:30.283Z,15.50
2023-05-22T10:18:58.161Z,15.70
2023-05-22T10:21:25.981Z,15.80
2023-05-22T10:23:54.419Z,15.90
2023-05-22T10:26:22.400Z,16.00
2023-05-22T10:28:53.631Z,16.00
2023-05-22T10:31:27.309Z,16.30
2023-05-22T10:34:06.432Z,16.20
2023-05-22T10:36:50.612Z,16.30
2023-05-22T10:39:38.364Z,16.20
2023-05-22T10:42:11.898Z,16.10
2023-05-22T10:44:40.177Z,16.10
2023-05-22T10:47:14.287Z,16.20
2023-05-22T10:49:44.475Z,16.20
2023-05-22T10:52:15.340Z,16.10
2023-05-22T10:54:44.238Z,16.10
2023-05-22T10:57:19.378Z,16.10
2023-05-22T10:59:49.373Z,16.00
2023-05-22T11:02:31.626Z,16.00
2023-05-22T11:05:34.608Z,16.00
2023-05-22T11:08:21.096Z,16.00
2023-05-22T11:10:52.296Z,16.00
2023-05-22T11:13:19.928Z,15.90
2023-05-22T11:15:48.287Z,15.80
2023-05-22T11:18:16.917Z,15.90
2023-05-22T11:20:46.542Z,15.90
2023-05-22T11:23:14.402Z,15.90
2023-05-22T11:25:42.182Z,16.00
2023-05-22T11:28:11.649Z,16.10
2023-05-22T11:30:39.955Z,16.20
2023-05-22T11:33:07.854Z,16.40
2023-05-22T11:35:35.585Z,16.40
2023-05-22T11:38:07.265Z,16.60
2023-05-22T11:40:35.000Z,16.80
2023-05-22T11:43:04.049Z,16.80
2023-05-22T11:45:31.582Z,17.00
2023-05-22T11:47:59.163Z,17.20
2023-05-22T11:50:40.891Z,17.50
2023-05-22T11:53:09.823Z,18.20
2023-05-22T11:55:37.355Z,18.60
2023-05-22T11:58:04.846Z,18.70
2023-05-22T12:00:33.349Z,18.70
2023-05-22T12:03:00.990Z,18.50
2023-05-22T12:05:31.429Z,18.00
2023-05-22T12:07:58.957Z,17.40
2023-05-22T12:10:26.519Z,17.20
2023-05-22T12:12:54.561Z,17.20
2023-05-22T12:15:22.105Z,17.20
2023-05-22T12:17:49.601Z,17.20
2023-05-22T12:20:17.164Z,17.10
2023-05-22T12:22:44.683Z,17.10
2023-05-22T12:25:18.406Z,17.20
2023-05-22T12:27:48.800Z,17.30
2023-05-22T12:30:16.900Z,17.30
2023-05-22T12:32:48.874Z,17.30
2023-05-22T12:35:17.256Z,17.30
2023-05-22T12:37:48.703Z,17.40
2023-05-22T12:40:16.248Z,17.50
2023-05-22T12:42:44.956Z,17.50
2023-05-22T12:45:13.426Z,17.50
2023-05-22T12:47:41.247Z,17.60
2023-05-22T12:50:08.989Z,17.50
2023-05-22T12:52:36.641Z,17.50
2023-05-22T12:55:04.669Z,17.40
2023-05-22T12:57:32.183Z,17.30
2023-05-22T12:59:59.630Z,17.30
2023-05-22T13:02:27.299Z,17.30
2023-05-22T13:04:54.909Z,17.20
2023-05-22T13:07:22.429Z,17.10
2023-05-22T13:09:49.961Z,17.10
2023-05-22T13:12:19.194Z,17.10
2023-05-22T13:14:46.849Z,17.10
2023-05-22T13:17:14.346Z,17.10
2023-05-22T13:19:41.902Z,17.20
2023-05-22T13:22:09.437Z,17.30
2023-05-22T13:24:36.900Z,17.40
2023-05-22T13:27:04.364Z,17.50
2023-05-22T13:29:32.472Z,17.60
2023-05-22T13:32:00.767Z,17.70
2023-05-22T13:34:29.010Z,17.80
2023-05-22T13:36:56.685Z,17.70
2023-05-22T13:39:24.135Z,17.80
2023-05-22T13:41:53.035Z,18.40
2023-05-22T13:44:21.310Z,18.70
2023-05-22T13:46:48.929Z,18.70
2023-05-22T13:49:16.428Z,18.70
2023-05-22T13:51:43.896Z,18.60
2023-05-22T13:54:11.610Z,18.70
2023-05-22T13:56:39.052Z,18.80
2023-05-22T13:59:09.206Z,18.70
2023-05-22T14:01:37.010Z,19.20
2023-05-22T14:04:05.518Z,19.50
2023-05-22T14:06:33.173Z,19.70
2023-05-22T14:09:00.741Z,19.60
2023-05-22T14:11:28.323Z,19.30
2023-05-22T14:13:55.870Z,18.80
2023-05-22T14:16:23.376Z,18.60
2023-05-22T14:18:50.872Z,18.50
2023-05-22T14:21:19.785Z,18.40
2023-05-22T14:23:47.241Z,18.40
2023-05-22T14:26:14.830Z,18.40
2023-05-22T14:28:43.078Z,18.50
2023-05-22T14:31:10.587Z,18.50
2023-05-22T14:33:38.071Z,18.80
2023-05-22T14:36:05.580Z,18.80
2023-05-22T14:38:33.793Z,19.40
2023-05-22T14:41:01.465Z,19.50
2023-05-22T14:43:29.275Z,19.40
2023-05-22T14:45:58.063Z,19.10
2023-05-22T14:48:26.563Z,19.00
2023-05-22T14:50:54.331Z,19.10
2023-05-22T14:53:22.182Z,19.00
2023-05-22T14:55:49.779Z,19.10
2023-05-22T14:58:17.346Z,19.30
2023-05-22T15:00:47.069Z,19.40
2023-05-22T15:03:14.541Z,19.50
2023-05-22T15:05:42.187Z,19.60
2023-05-22T15:08:09.840Z,19.50
2023-05-22T15:10:37.366Z,19.40
2023-05-22T15:13:04.800Z,19.30
2023-05-22T15:15:32.284Z,19.30
2023-05-22T15:18:02.651Z,19.40
2023-05-22T15:20:30.685Z,19.30
2023-05-22T15:22:59.437Z,19.20
2023-05-22T15:25:27.024Z,19.30
2023-05-22T15:27:54.482Z,19.40
2023-05-22T15:30:23.528Z,19.30
2023-05-22T15:32:52.135Z,19.40
2023-05-22T15:35:19.992Z,19.40
2023-05-22T15:37:47.458Z,19.30
2023-05-22T15:40:18.254Z,19.30
2023-05-22T15:42:45.799Z,19.30
2023-05-22T15:45:13.312Z,19.30
2023-05-22T15:47:41.459Z,19.40
2023-05-22T15:50:09.176Z,19.30
2023-05-22T15:52:37.165Z,19.30
2023-05-22T15:55:04.877Z,19.30
2023-05-22T15:57:33.811Z,19.30
2023-05-22T16:00:01.298Z,19.40
2023-05-22T16:02:28.976Z,19.40
2023-05-22T16:04:56.410Z,19.30
2023-05-22T16:07:23.935Z,19.30
2023-05-22T16:09:51.931Z,19.30
2023-05-22T16:12:20.883Z,19.30
2023-05-22T16:14:49.620Z,19.30
2023-05-22T16:17:18.014Z,19.30
2023-05-22T16:19:46.137Z,19.40
2023-05-22T16:22:14.561Z,19.30
2023-05-22T16:24:42.697Z,19.20
2023-05-22T16:27:10.940Z,19.10
2023-05-22T16:29:39.407Z,19.10
2023-05-22T16:32:07.093Z,19.10
2023-05-22T16:34:36.495Z,19.20
2023-05-22T16:37:04.276Z,19.20
2023-05-22T16:39:31.751Z,19.30
2023-05-22T16:42:00.373Z,19.20
2023-05-22T16:44:28.019Z,19.10
2023-05-22T16:46:55.982Z,19.10
2023-05-22T16:49:23.587Z,19.10
2023-05-22T16:51:51.079Z,19.00
2023-05-22T16:54:18.877Z,19.00
2023-05-22T16:56:46.933Z,19.00
2023-05-22T16:59:14.794Z,19.10
2023-05-22T17:01:43.400Z,19.10
2023-05-22T17:04:14.790Z,19.10
2023-05-22T17:06:43.426Z,19.00
2023-05-22T17:09:11.087Z,19.00
2023-05-22T17:11:38.534Z,18.90
2023-05-22T17:14:06.036Z,18.90
2023-05-22T17:16:33.596Z,18.90
2023-05-22T17:19:01.962Z,18.80
2023-05-22T17:21:30.745Z,18.80
2023-05-22T17:23:58.230Z,18.80
2023-05-22T17:26:25.821Z,18.80
2023-05-22T17:28:53.350Z,18.70
2023-05-22T17:31:21.967Z,18.70
2023-05-22T17:33:49.434Z,18.60
2023-05-22T17:36:16.908Z,18.60
2023-05-22T17:38:44.417Z,18.50
2023-05-22T17:41:11.892Z,18.50
2023-05-22T17:43:39.559Z,18.40
2023-05-22T17:46:07.217Z,18.30
2023-05-22T17:48:35.903Z,18.20
2023-05-22T17:51:03.731Z,18.20
2023-05-22T17:53:34.538Z,18.20
2023-05-22T17:56:02.650Z,18.10
2023-05-22T17:58:30.184Z,18.10
2023-05-22T18:00:58.098Z,18.00
2023-05-22T18:03:26.298Z,18.00
2023-05-22T18:05:53.992Z,17.90
2023-05-22T18:08:21.710Z,17.90
2023-05-22T18:10:49.490Z,17.90
2023-05-22T18:13:19.222Z,17.80
2023-05-22T18:15:48.306Z,17.70
2023-05-22T18:18:16.642Z,17.60
2023-05-22T18:20:46.403Z,17.60
2023-05-22T18:23:14.689Z,17.50
2023-05-22T18:25:42.259Z,17.50
2023-05-22T18:28:10.107Z,17.50
2023-05-22T18:30:37.802Z,17.40
2023-05-22T18:33:05.666Z,17.30
2023-05-22T18:35:33.358Z,17.30
2023-05-22T18:38:00.852Z,17.30
2023-05-22T18:40:28.299Z,17.20
2023-05-22T18:42:56.384Z,17.20
2023-05-22T18:45:24.721Z,17.20
2023-05-22T18:47:52.599Z,17.10
2023-05-22T18:50:22.171Z,17.00
2023-05-22T18:52:51.078Z,17.00
2023-05-22T18:55:18.522Z,16.90
2023-05-22T18:57:46.001Z,16.90
2023-05-22T19:00:13.602Z,16.80
2023-05-22T19:02:41.422Z,16.80
2023-05-22T19:05:09.307Z,16.70
2023-05-22T19:07:36.829Z,16.70
2023-05-22T19:10:07.076Z,16.60
2023-05-22T19:12:35.510Z,16.50
2023-05-22T19:15:03.173Z,16.40
2023-05-22T19:17:30.713Z,16.40
2023-05-22T19:19:58.368Z,16.30
2023-05-22T19:22:26.046Z,16.30
2023-05-22T19:24:53.490Z,16.20
2023-05-22T19:27:20.955Z,16.20
2023-05-22T19:29:48.743Z,16.10
2023-05-22T19:32:16.598Z,16.00
2023-05-22T19:34:44.057Z,16.00
2023-05-22T19:37:11.610Z,15.90
2023-05-22T19:39:39.166Z,15.90
2023-05-22T19:42:08.339Z,15.80
2023-05-22T19:44:36.056Z,15.80
2023-05-22T19:47:03.524Z,15.70
2023-05-22T19:49:31.781Z,15.70
2023-05-22T19:51:59.759Z,15.60
2023-05-22T19:54:27.295Z,15.50
2023-05-22T19:56:54.764Z,15.50
2023-05-22T19:59:22.201Z,15.40
2023-05-22T20:01:51.477Z,15.40
2023-05-22T20:04:21.540Z,15.30
2023-05-22T20:06:49.093Z,15.30
2023-05-22T20:09:16.778Z,15.20
2023-05-22T20:11:44.188Z,15.20
2023-05-22T20:14:12.358Z,15.10
2023-05-22T20:16:39.914Z,15.10
2023-05-22T20:19:07.485Z,15.00
2023-05-22T20:21:35.139Z,15.00
2023-05-22T20:24:06.126Z,14.90
2023-05-22T20:26:34.413Z,14.90
2023-05-22T20:29:02.596Z,14.80
2023-05-22T20:31:30.740Z,14.70
2023-05-22T20:33:59.512Z,14.70
2023-05-22T20:36:27.235Z,14.70
2023-05-22T20:38:54.888Z,14.60
2023-05-22T20:41:22.866Z,14.60
2023-05-22T20:43:50.521Z,14.50
2023-05-22T20:46:20.553Z,14.50
2023-05-22T20:48:49.204Z,14.40
2023-05-22T20:51:18.789Z,14.40
2023-05-22T20:53:52.977Z,14.40
2023-05-22T20:56:22.701Z,14.30
2023-05-22T20:58:51.516Z,14.30
2023-05-22T21:01:20.842Z,14.20
2023-05-22T21:03:51.532Z,14.20
2023-05-22T21:06:21.150Z,14.20
2023-05-22T21:08:51.958Z,14.20
2023-05-22T21:11:21.568Z,14.10
2023-05-22T21:13:49.854Z,14.10
2023-05-22T21:16:19.564Z,14.10
2023-05-22T21:18:48.229Z,14.00
2023-05-22T21:21:18.000Z,14.00
2023-05-22T21:23:46.352Z,13.90
2023-05-22T21:26:14.811Z,13.90
2023-05-22T21:28:43.037Z,13.80
2023-05-22T21:31:10.853Z,13.80
2023-05-22T21:33:38.362Z,13.80
2023-05-22T21:36:05.987Z,13.70
2023-05-22T21:38:33.439Z,13.70
2023-05-22T21:41:01.229Z,13.70
2023-05-22T21:43:28.735Z,13.60
2023-05-22T21:45:56.550Z,13.60
2023-05-22T21:48:24.014Z,13.50
2023-05-22T21:50:51.590Z,13.50
2023-05-22T21:53:19.050Z,13.50
2023-05-22T21:55:46.803Z,13.50
2023-05-22T21:58:14.382Z,13.00
2023-05-22T22:00:42.093Z,13.50
2023-05-22T22:03:09.822Z,13.40
2023-05-22T22:05:37.343Z,13.30
2023-05-22T22:08:04.954Z,13.30
2023-05-22T22:10:32.421Z,13.30
2023-05-22T22:13:00.588Z,13.30
2023-05-22T22:15:28.233Z,13.30
2023-05-22T22:18:02.187Z,13.20
2023-05-22T22:20:44.361Z,13.20
2023-05-22T22:23:12.924Z,13.10
2023-05-22T22:25:40.458Z,13.10
2023-05-22T22:28:08.065Z,13.00
2023-05-22T22:30:37.464Z,13.00
2023-05-22T22:33:05.096Z,13.00
2023-05-22T22:35:32.613Z,12.90
2023-05-22T22:38:00.177Z,13.00
2023-05-22T22:40:27.725Z,12.90
2023-05-22T22:42:55.291Z,12.90
2023-05-22T22:45:22.800Z,12.90
2023-05-22T22:47:50.387Z,12.80
2023-05-22T22:50:18.476Z,12.80
2023-05-22T22:52:46.030Z,12.80
2023-05-22T22:55:13.778Z,12.70
2023-05-22T22:57:44.717Z,12.80
2023-05-22T23:00:16.124Z,12.70
2023-05-22T23:02:43.791Z,12.70
2023-05-22T23:05:12.153Z,12.60
2023-05-22T23:07:39.754Z,12.60
2023-05-22T23:10:07.617Z,12.60
2023-05-22T23:12:36.270Z,12.60
2023-05-22T23:15:04.187Z,12.60
2023-05-22T23:17:31.711Z,12.50
2023-05-22T23:19:59.252Z,12.50
2023-05-22T23:22:27.187Z,12.50
2023-05-22T23:24:54.883Z,12.40
2023-05-22T23:27:22.732Z,12.50
2023-05-22T23:29:50.306Z,12.50
2023-05-22T23:32:18.358Z,12.50
2023-05-22T23:34:45.874Z,12.50
2023-05-22T23:37:13.368Z,12.50
2023-05-22T23:39:40.961Z,12.40
2023-05-22T23:42:09.919Z,12.40
2023-05-22T23:44:37.473Z,12.30
2023-05-22T23:47:05.465Z,12.30
2023-05-22T23:49:33.154Z,12.30
2023-05-22T23:52:00.639Z,12.20
2023-05-22T23:54:28.108Z,12.20
2023-05-22T23:56:55.512Z,12.20
2023-05-22T23:59:22.953Z,12.10
